Home > Products > Valid Products > TAF

000
FTUS43 KIND 241400 AAA
TAFLAF
TAF AMD
KLAF 241415Z 2414/2512 VRB03KT P6SM OVC025
     FM241500 23007KT P6SM OVC040
     FM241700 24005KT P6SM BKN250
     FM242300 20002KT P6SM BKN250
     FM250800 21002KT 5SM BR BKN040=



000
FTUS43 KIND 241400 AAA
TAFLAF
TAF AMD
KLAF 241415Z 2414/2512 VRB03KT P6SM OVC025
     FM241500 23007KT P6SM OVC040
     FM241700 24005KT P6SM BKN250
     FM242300 20002KT P6SM BKN250
     FM250800 21002KT 5SM BR BKN040=



000
FTUS43 KIND 241400 AAA
TAFIND
TAF AMD
KIND 241411Z 2414/2518 20004KT P6SM VCSH FEW060 BKN090
     FM241500 22007KT P6SM BKN040
     FM242100 21005KT P6SM BKN250
     FM250800 21005KT P6SM BKN040
     FM251500 25007KT P6SM SCT060=



000
FTUS43 KIND 241400 AAA
TAFIND
TAF AMD
KIND 241411Z 2414/2518 20004KT P6SM VCSH FEW060 BKN090
     FM241500 22007KT P6SM BKN040
     FM242100 21005KT P6SM BKN250
     FM250800 21005KT P6SM BKN040
     FM251500 25007KT P6SM SCT060=



000
FTUS43 KIND 241100
TAFIND
TAF
KIND 241120Z 2412/2518 20004KT P6SM VCSH BKN080
     FM241500 22007KT P6SM BKN040
     FM242100 21005KT P6SM BKN250
     FM250800 21005KT P6SM BKN040
     FM251500 25007KT P6SM SCT060=



000
FTUS43 KIND 241100
TAFLAF
TAF
KLAF 241120Z 2412/2512 VRB03KT P6SM OVC040
      TEMPO 2412/2414 -RA BKN030
     FM241500 23007KT P6SM OVC040
     FM241700 24005KT P6SM BKN250
     FM242300 20002KT P6SM BKN250
     FM250800 21002KT 5SM BR BKN040
      AMD LTD TO CLD VIS AND WIND TIL 241300=



000
FTUS43 KIND 241000 AAB
TAFLAF
TAF AMD
KLAF 241001Z 2410/2506 00000KT P6SM OVC040
      TEMPO 2410/2413 -RA BKN030
     FM241500 22005KT P6SM BKN040
     FM241700 22005KT P6SM BKN250
     FM242300 VRB02KT P6SM BKN250
      AMD LTD TO CLD VIS AND WIND TIL 241300=



000
FTUS43 KIND 241000 AAB
TAFLAF
TAF AMD
KLAF 241001Z 2410/2506 00000KT P6SM OVC040
      TEMPO 2410/2413 -RA BKN030
     FM241500 22005KT P6SM BKN040
     FM241700 22005KT P6SM BKN250
     FM242300 VRB02KT P6SM BKN250
      AMD LTD TO CLD VIS AND WIND TIL 241300=



000
FTUS43 KIND 240900 AAA
TAFLAF
TAF AMD
KLAF 240942Z 2410/2506 00000KT P6SM OVC040
      TEMPO 2410/2413 BKN030
     FM241500 22005KT P6SM BKN040
     FM241700 22005KT P6SM BKN250
     FM242300 VRB02KT P6SM BKN250
      AMD LTD TO CLD VIS AND WIND TIL 241300=



000
FTUS43 KIND 240800 AAA
TAFIND
TAF AMD
KIND 240813Z 2408/2512 20004KT P6SM BKN200
     FM241000 20004KT P6SM BKN040
     FM241500 22007KT P6SM BKN040
     FM242100 21005KT P6SM BKN250
     FM250800 21005KT P6SM BKN030=



000
FTUS43 KIND 240800 AAA
TAFIND
TAF AMD
KIND 240813Z 2408/2512 20004KT P6SM BKN200
     FM241000 20004KT P6SM BKN040
     FM241500 22007KT P6SM BKN040
     FM242100 21005KT P6SM BKN250
     FM250800 21005KT P6SM BKN030=



000
FTUS43 KIND 240500
TAFIND
TAF
KIND 240520Z 2406/2512 20004KT P6SM BKN200
     FM241000 20004KT P6SM BKN040
     FM241500 22007KT P6SM BKN040
     FM242100 21005KT P6SM BKN250
     FM250800 21005KT P6SM BKN030=



000
FTUS43 KIND 240500
TAFLAF
TAF
KLAF 240520Z 2406/2506 00000KT P6SM BKN040
      TEMPO 2409/2413 BKN030
     FM241500 22005KT P6SM BKN040
     FM241700 22005KT P6SM BKN250
     FM242300 VRB02KT P6SM BKN250
      AMD LTD TO CLD VIS AND WIND TIL 241300=



000
FTUS43 KIND 240200 AAA
TAFIND
TAF AMD
KIND 240217Z 2402/2506 16004KT P6SM BKN200
     FM241000 19003KT P6SM BKN050
     FM241500 22007KT P6SM BKN040
     FM242100 22005KT P6SM BKN250=



000
FTUS43 KIND 240200 AAA
TAFIND
TAF AMD
KIND 240217Z 2402/2506 16004KT P6SM BKN200
     FM241000 19003KT P6SM BKN050
     FM241500 22007KT P6SM BKN040
     FM242100 22005KT P6SM BKN250=



000
FTUS43 KIND 232300
TAFLAF
TAF
KLAF 232320Z 2400/2424 00000KT P6SM BKN200
     FM240600 00000KT P6SM BKN050
     FM241500 22005KT P6SM BKN040
     FM241700 22005KT P6SM BKN250
      AMD LTD TO CLD VIS AND WIND 2401/2413=



000
FTUS43 KIND 232300
TAFIND
TAF
KIND 232320Z 2400/2506 00000KT P6SM BKN200
     FM241000 19003KT P6SM BKN050
     FM241500 22007KT P6SM BKN040
     FM242100 22005KT P6SM BKN250=



000
FTUS43 KIND 232000 AAA
TAFIND
TAF AMD
KIND 232019Z 2320/2424 21003KT P6SM BKN200
     FM241500 24007KT P6SM SCT040 BKN100
     FM242300 22005KT P6SM BKN150=



000
FTUS43 KIND 231700
TAFIND
TAF
KIND 231725Z 2318/2424 00000KT P6SM SCT250
     FM232000 21003KT P6SM BKN200
     FM241500 24007KT P6SM SCT040 BKN100
     FM242300 22005KT P6SM BKN150=



000
FTUS43 KIND 231700
TAFLAF
TAF
KLAF 231725Z 2318/2418 18007KT P6SM BKN200
     FM240100 22003KT P6SM SCT040 BKN100
     FM241500 25006KT P6SM BKN150=



000
FTUS43 KIND 231400 AAA
TAFIND
TAF AMD
KIND 231420Z 2314/2418 18003KT 5SM BR SCT250
     FM231500 19005KT P6SM SCT250
     FM231900 22006KT P6SM BKN200
     FM240700 19005KT P6SM SCT040 OVC080
     FM241500 25007KT P6SM SCT040 BKN100=



000
FTUS43 KIND 231100
TAFIND
TAF
KIND 231122Z 2312/2418 13002KT 6SM BR SKC
     FM231300 18004KT P6SM SCT250
     FM231900 22006KT P6SM BKN200
     FM240700 19005KT P6SM SCT040 OVC080
     FM241500 25007KT P6SM SCT040 BKN100=



000
FTUS43 KIND 231100
TAFLAF
TAF
KLAF 231122Z 2312/2412 00000KT 4SM BR SKC
     FM231330 19004KT P6SM SCT250
     FM231800 21006KT P6SM BKN200
     FM240200 21003KT P6SM SCT040 OVC080
     FM240500 24003KT P6SM BKN040 OVC080
      AMD LTD TO CLD VIS AND WIND TIL 231300=



000
FTUS43 KIND 230900 AAA
TAFLAF
TAF AMD
KLAF 230901Z 2309/2406 VRB03KT P6SM SKC
     FM231000 00000KT 3SM BR MIFG SKC
     FM231400 19005KT P6SM SCT250
     FM231800 21006KT P6SM BKN200
     FM240400 21003KT P6SM OVC080
      AMD LTD TO CLD VIS AND WIND TIL 231300=



000
FTUS43 KIND 230800 AAA
TAFIND
TAF AMD
KIND 230827Z 2308/2412 08003KT P6SM SKC
     FM231000 13002KT 6SM BR SKC
     FM231300 18005KT P6SM SCT250
     FM231900 22007KT P6SM BKN200
     FM240700 19005KT P6SM OVC080=



000
FTUS43 KIND 230500
TAFIND
TAF
KIND 230532Z 2306/2412 10004KT P6SM SKC
     FM231000 13002KT 5SM BR SKC
     FM231300 18005KT P6SM SCT250
     FM231900 22007KT P6SM BKN200
     FM240700 19005KT P6SM OVC080=



000
FTUS43 KIND 230500
TAFLAF
TAF
KLAF 230532Z 2306/2406 VRB03KT P6SM SKC
     FM231000 00000KT 2SM BR MIFG SKC
     FM231400 19005KT P6SM SCT250
     FM231800 21006KT P6SM BKN200
     FM240400 21003KT P6SM OVC080
      AMD LTD TO CLD VIS AND WIND TIL 231300=



000
FTUS43 KIND 230200 AAA
TAFIND
TAF AMD
KIND 230226Z 2302/2406 10004KT P6SM SKC
     FM231000 13002KT 5SM BR SKC
     FM231300 18005KT P6SM SCT250
     FM231900 22007KT P6SM BKN200=



000
FTUS43 KIND 222300
TAFLAF
TAF
KLAF 222320Z 2300/2324 VRB03KT P6SM SKC
     FM231000 00000KT 2SM BR MIFG SKC
     FM231400 19005KT P6SM SCT250
     FM231800 23007KT P6SM BKN200
      AMD LTD TO CLD VIS AND WIND 2301/2313=



000
FTUS43 KIND 222300
TAFIND
TAF
KIND 222320Z 2300/2406 08004KT P6SM SKC
     FM231000 13002KT 5SM BR SKC
     FM231300 18005KT P6SM SCT250
     FM231900 22007KT P6SM BKN200=



000
FTUS43 KIND 222000 AAA
TAFIND
TAF AMD
KIND 222011Z 2220/2324 08004KT P6SM SKC
     FM231000 13002KT 5SM BR SKC
     FM231300 17005KT P6SM SCT250=



000
FTUS43 KIND 221700
TAFLAF
TAF
KLAF 221720Z 2218/2318 07005KT P6SM SKC
     FM222300 VRB03KT P6SM SKC
     FM230900 00000KT 3SM BR SKC
     FM231400 19005KT P6SM SCT250=



000
FTUS43 KIND 221700
TAFIND
TAF
KIND 221720Z 2218/2324 04006KT P6SM FEW030
     FM222300 09004KT P6SM SKC
     FM231300 17005KT P6SM SCT250=



000
FTUS43 KIND 221700
TAFLAF
TAF
KLAF 221720Z 2218/2318 07005KT P6SM SKC
     FM222300 VRB03KT P6SM SKC
     FM230900 00000KT 3SM BR SKC
     FM231400 19005KT P6SM SCT250=



000
FTUS43 KIND 221700
TAFIND
TAF
KIND 221720Z 2218/2324 04006KT P6SM FEW030
     FM222300 09004KT P6SM SKC
     FM231300 17005KT P6SM SCT250=



000
FTUS43 KIND 221400 AAA
TAFIND
TAF AMD
KIND 221411Z 2214/2318 04007KT P6SM SCT030
     FM221900 05006KT P6SM FEW035
     FM222300 08004KT P6SM SKC=



000
FTUS43 KIND 221100
TAFLAF
TAF
KLAF 221135Z 2212/2312 05004KT P6SM SKC
     FM221600 04006KT P6SM FEW030
     FM222300 VRB03KT P6SM SKC
      AMD LTD TO CLD VIS AND WIND TIL 221300=



000
FTUS43 KIND 221100
TAFIND
TAF
KIND 221135Z 2212/2318 02006KT P6SM SKC
     FM221600 04006KT P6SM FEW030
     FM222300 06004KT P6SM SKC=



000
FTUS43 KIND 220800 AAA
TAFIND
TAF AMD
KIND 220816Z 2208/2312 36006KT P6SM SKC
     FM221600 02006KT P6SM SKC
     FM222300 03004KT P6SM SKC=



000
FTUS43 KIND 220500
TAFLAF
TAF
KLAF 220520Z 2206/2306 03005KT P6SM SKC
     FM221600 05005KT P6SM SKC
     FM222300 VRB03KT P6SM SKC
      AMD LTD TO CLD VIS AND WIND TIL 221300=



000
FTUS43 KIND 220500
TAFLAF
TAF
KLAF 220520Z 2206/2306 03005KT P6SM SKC
     FM221600 05005KT P6SM SKC
     FM222300 VRB03KT P6SM SKC
      AMD LTD TO CLD VIS AND WIND TIL 221300=



000
FTUS43 KIND 220500
TAFIND
TAF
KIND 220520Z 2206/2312 05010KT P6SM FEW040
     FM221600 02006KT P6SM SKC
     FM222300 03004KT P6SM SKC=



000
FTUS43 KIND 220500
TAFIND
TAF
KIND 220520Z 2206/2312 05010KT P6SM FEW040
     FM221600 02006KT P6SM SKC
     FM222300 03004KT P6SM SKC=



000
FTUS43 KIND 220200 AAA
TAFIND
TAF AMD
KIND 220214Z 2202/2306 02006KT P6SM BKN040
     FM220400 02006KT P6SM SKC
     FM221600 02006KT P6SM SKC
     FM222300 03004KT P6SM SKC=



000
FTUS43 KIND 220200 AAA
TAFIND
TAF AMD
KIND 220214Z 2202/2306 02006KT P6SM BKN040
     FM220400 02006KT P6SM SKC
     FM221600 02006KT P6SM SKC
     FM222300 03004KT P6SM SKC=



000
FTUS43 KIND 212300
TAFIND
TAF
KIND 212320Z 2200/2306 02006KT P6SM BKN050
     FM220400 02006KT P6SM SKC
     FM221600 02006KT P6SM SKC
     FM222300 03004KT P6SM SKC=



000
FTUS43 KIND 212300
TAFLAF
TAF
KLAF 212320Z 2200/2224 03004KT P6SM BKN040
     FM220400 VRB03KT P6SM SKC
     FM221600 05005KT P6SM SKC
     FM222300 VRB03KT P6SM SKC
      AMD LTD TO CLD VIS AND WIND 2201/2213=



000
FTUS43 KIND 212300
TAFLAF
TAF
KLAF 212320Z 2200/2224 03004KT P6SM BKN040
     FM220400 VRB03KT P6SM SKC
     FM221600 05005KT P6SM SKC
     FM222300 VRB03KT P6SM SKC
      AMD LTD TO CLD VIS AND WIND 2201/2213=



000
FTUS43 KIND 212300
TAFIND
TAF
KIND 212320Z 2200/2306 02006KT P6SM BKN050
     FM220400 02006KT P6SM SKC
     FM221600 02006KT P6SM SKC
     FM222300 03004KT P6SM SKC=



000
FTUS43 KIND 212000 AAB
TAFIND
TAF AMD
KIND 212024Z 2120/2224 34011KT P6SM BKN040
     FM212300 02007KT P6SM BKN040
     FM220400 03006KT P6SM SKC
     FM221600 03006KT P6SM SCT040=



000
FTUS43 KIND 211800 AAA
TAFIND
TAF AMD
KIND 211848Z 2119/2224 34010KT P6SM BKN040
     FM212300 02007KT P6SM BKN040
     FM220400 03006KT P6SM SKC
     FM221600 03006KT P6SM SCT040=



000
FTUS43 KIND 211700
TAFIND
TAF
KIND 211720Z 2118/2224 34011KT P6SM VCSH BKN025
     FM212000 34011KT P6SM BKN040
     FM212300 02007KT P6SM BKN040
     FM220400 03006KT P6SM SKC
     FM221600 03006KT P6SM SCT040=



000
FTUS43 KIND 211700
TAFLAF
TAF
KLAF 211720Z 2118/2218 35010G18KT P6SM VCSH SCT025 BKN040
     FM212200 02006KT P6SM SCT035
     FM220400 05004KT P6SM SKC
     FM221600 05006KT P6SM SCT040=



000
FTUS43 KIND 211600 AAB
TAFLAF
TAF AMD
KLAF 211624Z 2116/2212 35010G18KT P6SM VCSH SCT025 BKN040
     FM212200 02008KT P6SM SCT035
     FM220200 05004KT P6SM SKC=



000
FTUS43 KIND 211600 AAA
TAFIND
TAF AMD
KIND 211623Z 2116/2218 33011KT P6SM VCSH BKN025
     FM211900 34012KT P6SM BKN040
     FM212300 02008KT P6SM SCT040
     FM220200 04007KT P6SM SKC=



    US Dept of Commerce
    National Oceanic and Atmospheric Administration
    National Weather Service
    1325 East West Highway
    Silver Spring, MD 20910
    Page Author: NWS Internet Services Team
Disclaimer
Information Quality
Credits
Glossary
Privacy Policy
Freedom of Information Act (FOIA)
About Us
Career Opportunities